sensor_id;sensor_type;location;lat;lon;timestamp;P1;durP1;ratioP1;P2;durP2;ratioP2
21786;SDS011;11055;50.870;4.316;2022-11-20T00:00:53;56.08;;;32.53;;
21786;SDS011;11055;50.870;4.316;2022-11-20T00:03:19;56.30;;;31.50;;
21786;SDS011;11055;50.870;4.316;2022-11-20T00:05:44;46.88;;;29.73;;
21786;SDS011;11055;50.870;4.316;2022-11-20T00:08:10;51.40;;;29.95;;
21786;SDS011;11055;50.870;4.316;2022-11-20T00:10:36;50.00;;;30.98;;
21786;SDS011;11055;50.870;4.316;2022-11-20T00:13:03;51.22;;;30.75;;
21786;SDS011;11055;50.870;4.316;2022-11-20T00:15:29;50.72;;;30.00;;
21786;SDS011;11055;50.870;4.316;2022-11-20T00:17:55;53.88;;;31.65;;
21786;SDS011;11055;50.870;4.316;2022-11-20T00:20:20;56.45;;;32.88;;
21786;SDS011;11055;50.870;4.316;2022-11-20T00:22:46;53.55;;;33.25;;
21786;SDS011;11055;50.870;4.316;2022-11-20T00:25:12;52.72;;;33.03;;
21786;SDS011;11055;50.870;4.316;2022-11-20T00:27:37;51.35;;;33.20;;
21786;SDS011;11055;50.870;4.316;2022-11-20T00:30:04;53.38;;;34.45;;
21786;SDS011;11055;50.870;4.316;2022-11-20T00:32:30;54.75;;;33.78;;
21786;SDS011;11055;50.870;4.316;2022-11-20T00:34:55;62.45;;;36.00;;
21786;SDS011;11055;50.870;4.316;2022-11-20T00:37:21;56.60;;;33.38;;
21786;SDS011;11055;50.870;4.316;2022-11-20T00:39:47;59.78;;;35.78;;
21786;SDS011;11055;50.870;4.316;2022-11-20T00:42:12;59.40;;;35.75;;
21786;SDS011;11055;50.870;4.316;2022-11-20T00:44:38;65.45;;;36.88;;
21786;SDS011;11055;50.870;4.316;2022-11-20T00:47:04;64.18;;;36.60;;
21786;SDS011;11055;50.870;4.316;2022-11-20T00:49:29;68.93;;;36.97;;
21786;SDS011;11055;50.870;4.316;2022-11-20T00:51:55;65.18;;;37.25;;
21786;SDS011;11055;50.870;4.316;2022-11-20T00:54:21;65.32;;;38.45;;
21786;SDS011;11055;50.870;4.316;2022-11-20T00:56:46;74.95;;;39.15;;
21786;SDS011;11055;50.870;4.316;2022-11-20T00:59:12;70.65;;;38.90;;
21786;SDS011;11055;50.870;4.316;2022-11-20T01:01:37;68.57;;;39.10;;
21786;SDS011;11055;50.870;4.316;2022-11-20T01:04:03;60.63;;;36.65;;
21786;SDS011;11055;50.870;4.316;2022-11-20T01:06:33;64.75;;;37.17;;
21786;SDS011;11055;50.870;4.316;2022-11-20T01:09:05;67.03;;;39.58;;
21786;SDS011;11055;50.870;4.316;2022-11-20T01:11:34;60.83;;;37.70;;
21786;SDS011;11055;50.870;4.316;2022-11-20T01:14:02;61.35;;;38.10;;
21786;SDS011;11055;50.870;4.316;2022-11-20T01:16:31;61.45;;;36.70;;
21786;SDS011;11055;50.870;4.316;2022-11-20T01:18:59;59.03;;;35.88;;
21786;SDS011;11055;50.870;4.316;2022-11-20T01:21:27;61.85;;;36.38;;
21786;SDS011;11055;50.870;4.316;2022-11-20T01:23:54;57.35;;;35.05;;
21786;SDS011;11055;50.870;4.316;2022-11-20T01:26:22;59.92;;;35.60;;
21786;SDS011;11055;50.870;4.316;2022-11-20T01:28:49;61.20;;;34.83;;
21786;SDS011;11055;50.870;4.316;2022-11-20T01:33:45;65.90;;;36.40;;
21786;SDS011;11055;50.870;4.316;2022-11-20T01:36:12;60.55;;;36.00;;
21786;SDS011;11055;50.870;4.316;2022-11-20T01:38:39;57.65;;;35.50;;
21786;SDS011;11055;50.870;4.316;2022-11-20T01:41:06;56.58;;;34.15;;
21786;SDS011;11055;50.870;4.316;2022-11-20T01:43:32;56.15;;;34.40;;
21786;SDS011;11055;50.870;4.316;2022-11-20T01:51:23;54.03;;;33.42;;
21786;SDS011;11055;50.870;4.316;2022-11-20T01:53:54;49.45;;;33.13;;
21786;SDS011;11055;50.870;4.316;2022-11-20T01:56:23;51.45;;;32.47;;
21786;SDS011;11055;50.870;4.316;2022-11-20T01:58:51;52.17;;;31.88;;
21786;SDS011;11055;50.870;4.316;2022-11-20T02:01:21;53.60;;;33.28;;
21786;SDS011;11055;50.870;4.316;2022-11-20T02:03:47;54.45;;;33.17;;
21786;SDS011;11055;50.870;4.316;2022-11-20T02:06:24;58.17;;;34.95;;
21786;SDS011;11055;50.870;4.316;2022-11-20T02:08:53;54.05;;;33.33;;
21786;SDS011;11055;50.870;4.316;2022-11-20T02:11:20;54.88;;;32.60;;
21786;SDS011;11055;50.870;4.316;2022-11-20T02:13:46;52.88;;;32.22;;
21786;SDS011;11055;50.870;4.316;2022-11-20T02:16:17;51.38;;;30.92;;
21786;SDS011;11055;50.870;4.316;2022-11-20T02:18:44;56.00;;;33.22;;
21786;SDS011;11055;50.870;4.316;2022-11-20T02:24:05;51.88;;;31.77;;
21786;SDS011;11055;50.870;4.316;2022-11-20T02:26:41;46.58;;;31.33;;
21786;SDS011;11055;50.870;4.316;2022-11-20T02:29:15;46.25;;;29.70;;
21786;SDS011;11055;50.870;4.316;2022-11-20T02:31:43;45.67;;;29.65;;
21786;SDS011;11055;50.870;4.316;2022-11-20T02:34:10;56.53;;;31.38;;
21786;SDS011;11055;50.870;4.316;2022-11-20T02:36:36;46.42;;;30.13;;
21786;SDS011;11055;50.870;4.316;2022-11-20T02:39:03;53.45;;;31.30;;
21786;SDS011;11055;50.870;4.316;2022-11-20T02:41:36;53.65;;;31.50;;
21786;SDS011;11055;50.870;4.316;2022-11-20T02:44:03;51.63;;;30.73;;
21786;SDS011;11055;50.870;4.316;2022-11-20T02:46:29;52.50;;;31.98;;
21786;SDS011;11055;50.870;4.316;2022-11-20T02:48:55;50.42;;;31.35;;
21786;SDS011;11055;50.870;4.316;2022-11-20T02:51:20;48.10;;;31.13;;
21786;SDS011;11055;50.870;4.316;2022-11-20T02:53:46;52.25;;;30.92;;
21786;SDS011;11055;50.870;4.316;2022-11-20T02:56:12;48.95;;;29.88;;
21786;SDS011;11055;50.870;4.316;2022-11-20T02:58:37;49.55;;;29.70;;
21786;SDS011;11055;50.870;4.316;2022-11-20T03:01:03;53.28;;;30.75;;
21786;SDS011;11055;50.870;4.316;2022-11-20T03:03:29;46.50;;;27.83;;
21786;SDS011;11055;50.870;4.316;2022-11-20T03:05:54;51.13;;;28.90;;
21786;SDS011;11055;50.870;4.316;2022-11-20T03:08:20;55.10;;;32.05;;
21786;SDS011;11055;50.870;4.316;2022-11-20T03:10:45;53.60;;;30.25;;
21786;SDS011;11055;50.870;4.316;2022-11-20T03:13:11;48.58;;;27.27;;
21786;SDS011;11055;50.870;4.316;2022-11-20T03:15:37;48.67;;;28.30;;
21786;SDS011;11055;50.870;4.316;2022-11-20T03:18:03;49.60;;;27.60;;
21786;SDS011;11055;50.870;4.316;2022-11-20T03:20:29;50.83;;;29.08;;
21786;SDS011;11055;50.870;4.316;2022-11-20T03:22:54;49.17;;;29.00;;
21786;SDS011;11055;50.870;4.316;2022-11-20T03:25:20;52.47;;;30.20;;
21786;SDS011;11055;50.870;4.316;2022-11-20T03:27:47;51.53;;;29.38;;
21786;SDS011;11055;50.870;4.316;2022-11-20T03:30:13;46.60;;;28.98;;
21786;SDS011;11055;50.870;4.316;2022-11-20T03:32:38;53.83;;;31.30;;
21786;SDS011;11055;50.870;4.316;2022-11-20T03:35:04;54.50;;;31.25;;
21786;SDS011;11055;50.870;4.316;2022-11-20T03:37:31;50.03;;;29.77;;
21786;SDS011;11055;50.870;4.316;2022-11-20T03:39:57;55.28;;;30.50;;
21786;SDS011;11055;50.870;4.316;2022-11-20T03:42:22;49.95;;;29.58;;
21786;SDS011;11055;50.870;4.316;2022-11-20T03:45:06;53.83;;;30.92;;
21786;SDS011;11055;50.870;4.316;2022-11-20T03:47:32;52.10;;;30.30;;
21786;SDS011;11055;50.870;4.316;2022-11-20T03:49:58;53.20;;;30.90;;
21786;SDS011;11055;50.870;4.316;2022-11-20T03:52:23;51.25;;;29.80;;
21786;SDS011;11055;50.870;4.316;2022-11-20T03:54:49;51.13;;;29.60;;
21786;SDS011;11055;50.870;4.316;2022-11-20T03:57:14;52.20;;;29.85;;
21786;SDS011;11055;50.870;4.316;2022-11-20T03:59:40;53.03;;;30.45;;
21786;SDS011;11055;50.870;4.316;2022-11-20T04:02:06;49.30;;;29.63;;
21786;SDS011;11055;50.870;4.316;2022-11-20T04:04:31;45.75;;;28.30;;
21786;SDS011;11055;50.870;4.316;2022-11-20T04:06:57;48.67;;;29.58;;
21786;SDS011;11055;50.870;4.316;2022-11-20T04:09:22;45.38;;;28.98;;
21786;SDS011;11055;50.870;4.316;2022-11-20T04:11:48;51.65;;;28.58;;
21786;SDS011;11055;50.870;4.316;2022-11-20T04:14:14;45.88;;;27.85;;
21786;SDS011;11055;50.870;4.316;2022-11-20T04:16:41;47.08;;;27.75;;
21786;SDS011;11055;50.870;4.316;2022-11-20T04:19:14;47.40;;;28.45;;
21786;SDS011;11055;50.870;4.316;2022-11-20T04:21:41;52.92;;;30.40;;
21786;SDS011;11055;50.870;4.316;2022-11-20T04:24:08;49.95;;;29.67;;
21786;SDS011;11055;50.870;4.316;2022-11-20T04:26:35;51.05;;;28.90;;
21786;SDS011;11055;50.870;4.316;2022-11-20T04:29:00;51.95;;;30.00;;
21786;SDS011;11055;50.870;4.316;2022-11-20T04:31:27;51.33;;;28.77;;
21786;SDS011;11055;50.870;4.316;2022-11-20T04:33:54;54.40;;;30.52;;
21786;SDS011;11055;50.870;4.316;2022-11-20T04:36:22;56.17;;;30.05;;
21786;SDS011;11055;50.870;4.316;2022-11-20T04:38:56;58.42;;;31.48;;
21786;SDS011;11055;50.870;4.316;2022-11-20T04:41:27;58.13;;;30.45;;
21786;SDS011;11055;50.870;4.316;2022-11-20T04:43:56;58.22;;;30.50;;
21786;SDS011;11055;50.870;4.316;2022-11-20T04:46:28;57.53;;;31.08;;
21786;SDS011;11055;50.870;4.316;2022-11-20T04:48:56;60.15;;;30.88;;
21786;SDS011;11055;50.870;4.316;2022-11-20T04:51:22;64.63;;;32.30;;
21786;SDS011;11055;50.870;4.316;2022-11-20T04:53:48;60.30;;;31.58;;
21786;SDS011;11055;50.870;4.316;2022-11-20T04:56:14;63.97;;;32.47;;
21786;SDS011;11055;50.870;4.316;2022-11-20T04:58:40;59.35;;;31.00;;
21786;SDS011;11055;50.870;4.316;2022-11-20T05:01:10;64.75;;;33.33;;
21786;SDS011;11055;50.870;4.316;2022-11-20T05:03:37;65.85;;;32.88;;
21786;SDS011;11055;50.870;4.316;2022-11-20T05:06:04;72.07;;;34.10;;
21786;SDS011;11055;50.870;4.316;2022-11-20T05:08:31;63.13;;;32.08;;
21786;SDS011;11055;50.870;4.316;2022-11-20T05:11:01;68.00;;;34.28;;
21786;SDS011;11055;50.870;4.316;2022-11-20T05:13:28;64.82;;;33.67;;
21786;SDS011;11055;50.870;4.316;2022-11-20T05:15:54;61.78;;;32.05;;
21786;SDS011;11055;50.870;4.316;2022-11-20T05:18:20;67.55;;;33.30;;
21786;SDS011;11055;50.870;4.316;2022-11-20T05:20:45;67.38;;;33.38;;
21786;SDS011;11055;50.870;4.316;2022-11-20T05:23:11;64.13;;;32.22;;
21786;SDS011;11055;50.870;4.316;2022-11-20T05:25:36;60.20;;;31.38;;
21786;SDS011;11055;50.870;4.316;2022-11-20T05:28:02;61.85;;;31.30;;
21786;SDS011;11055;50.870;4.316;2022-11-20T05:30:28;57.13;;;32.40;;
21786;SDS011;11055;50.870;4.316;2022-11-20T05:32:53;63.63;;;32.40;;
21786;SDS011;11055;50.870;4.316;2022-11-20T05:35:19;67.20;;;34.08;;
21786;SDS011;11055;50.870;4.316;2022-11-20T05:37:45;64.85;;;32.22;;
21786;SDS011;11055;50.870;4.316;2022-11-20T05:40:10;66.20;;;34.17;;
21786;SDS011;11055;50.870;4.316;2022-11-20T05:42:36;65.57;;;32.35;;
21786;SDS011;11055;50.870;4.316;2022-11-20T05:45:03;73.00;;;34.72;;
21786;SDS011;11055;50.870;4.316;2022-11-20T05:47:31;70.78;;;35.05;;
21786;SDS011;11055;50.870;4.316;2022-11-20T05:49:58;66.88;;;34.10;;
21786;SDS011;11055;50.870;4.316;2022-11-20T05:52:24;67.95;;;32.92;;
21786;SDS011;11055;50.870;4.316;2022-11-20T05:54:52;64.88;;;33.10;;
21786;SDS011;11055;50.870;4.316;2022-11-20T05:57:18;64.15;;;32.88;;
21786;SDS011;11055;50.870;4.316;2022-11-20T05:59:43;73.38;;;35.75;;
21786;SDS011;11055;50.870;4.316;2022-11-20T06:02:09;70.55;;;34.10;;
21786;SDS011;11055;50.870;4.316;2022-11-20T06:04:35;71.70;;;34.22;;
21786;SDS011;11055;50.870;4.316;2022-11-20T06:07:00;67.65;;;32.75;;
21786;SDS011;11055;50.870;4.316;2022-11-20T06:09:26;69.72;;;33.88;;
21786;SDS011;11055;50.870;4.316;2022-11-20T06:11:52;77.03;;;35.72;;
21786;SDS011;11055;50.870;4.316;2022-11-20T06:14:17;72.75;;;33.78;;
21786;SDS011;11055;50.870;4.316;2022-11-20T06:16:43;74.15;;;34.05;;
21786;SDS011;11055;50.870;4.316;2022-11-20T06:19:08;76.13;;;34.13;;
21786;SDS011;11055;50.870;4.316;2022-11-20T06:21:34;79.80;;;34.95;;
21786;SDS011;11055;50.870;4.316;2022-11-20T06:24:00;75.82;;;35.35;;
21786;SDS011;11055;50.870;4.316;2022-11-20T06:26:26;84.43;;;35.78;;
21786;SDS011;11055;50.870;4.316;2022-11-20T06:28:53;85.03;;;35.33;;
21786;SDS011;11055;50.870;4.316;2022-11-20T06:31:23;78.07;;;34.75;;
21786;SDS011;11055;50.870;4.316;2022-11-20T06:33:50;77.78;;;35.15;;
21786;SDS011;11055;50.870;4.316;2022-11-20T06:36:16;78.22;;;34.85;;
21786;SDS011;11055;50.870;4.316;2022-11-20T06:38:44;79.65;;;34.90;;
21786;SDS011;11055;50.870;4.316;2022-11-20T06:41:10;73.78;;;34.45;;
21786;SDS011;11055;50.870;4.316;2022-11-20T06:43:38;70.82;;;33.88;;
21786;SDS011;11055;50.870;4.316;2022-11-20T06:46:03;73.22;;;35.72;;
21786;SDS011;11055;50.870;4.316;2022-11-20T06:48:29;70.45;;;34.40;;
21786;SDS011;11055;50.870;4.316;2022-11-20T06:50:55;73.45;;;35.08;;
21786;SDS011;11055;50.870;4.316;2022-11-20T06:53:22;69.80;;;34.33;;
21786;SDS011;11055;50.870;4.316;2022-11-20T06:55:48;69.95;;;33.22;;
21786;SDS011;11055;50.870;4.316;2022-11-20T06:58:14;71.90;;;34.20;;
21786;SDS011;11055;50.870;4.316;2022-11-20T07:00:41;69.70;;;33.15;;
21786;SDS011;11055;50.870;4.316;2022-11-20T07:03:08;68.15;;;32.40;;
21786;SDS011;11055;50.870;4.316;2022-11-20T07:05:36;69.30;;;33.70;;
21786;SDS011;11055;50.870;4.316;2022-11-20T07:08:02;68.10;;;33.25;;
21786;SDS011;11055;50.870;4.316;2022-11-20T07:10:28;68.55;;;33.20;;
21786;SDS011;11055;50.870;4.316;2022-11-20T07:12:54;68.60;;;32.67;;
21786;SDS011;11055;50.870;4.316;2022-11-20T07:15:20;71.75;;;34.38;;
21786;SDS011;11055;50.870;4.316;2022-11-20T07:17:48;69.72;;;32.97;;
21786;SDS011;11055;50.870;4.316;2022-11-20T07:20:14;72.25;;;33.60;;
21786;SDS011;11055;50.870;4.316;2022-11-20T07:22:40;63.08;;;31.58;;
21786;SDS011;11055;50.870;4.316;2022-11-20T07:25:06;72.30;;;33.22;;
21786;SDS011;11055;50.870;4.316;2022-11-20T07:27:32;67.10;;;33.08;;
21786;SDS011;11055;50.870;4.316;2022-11-20T07:29:58;64.88;;;32.88;;
21786;SDS011;11055;50.870;4.316;2022-11-20T07:32:24;62.10;;;32.25;;
21786;SDS011;11055;50.870;4.316;2022-11-20T07:34:49;63.28;;;32.38;;
21786;SDS011;11055;50.870;4.316;2022-11-20T07:37:15;62.78;;;31.40;;
21786;SDS011;11055;50.870;4.316;2022-11-20T07:39:41;68.28;;;32.80;;
21786;SDS011;11055;50.870;4.316;2022-11-20T07:42:07;62.83;;;32.00;;
21786;SDS011;11055;50.870;4.316;2022-11-20T07:44:33;66.35;;;32.42;;
21786;SDS011;11055;50.870;4.316;2022-11-20T07:46:59;61.55;;;30.70;;
21786;SDS011;11055;50.870;4.316;2022-11-20T07:49:25;62.92;;;32.75;;
21786;SDS011;11055;50.870;4.316;2022-11-20T07:51:50;68.32;;;32.35;;
21786;SDS011;11055;50.870;4.316;2022-11-20T07:54:18;64.20;;;32.03;;
21786;SDS011;11055;50.870;4.316;2022-11-20T07:56:44;73.32;;;31.15;;
21786;SDS011;11055;50.870;4.316;2022-11-20T07:59:10;64.88;;;29.63;;
21786;SDS011;11055;50.870;4.316;2022-11-20T08:01:37;71.57;;;31.02;;
21786;SDS011;11055;50.870;4.316;2022-11-20T08:04:03;70.93;;;31.17;;
21786;SDS011;11055;50.870;4.316;2022-11-20T08:06:28;68.80;;;30.58;;
21786;SDS011;11055;50.870;4.316;2022-11-20T08:08:55;72.78;;;30.88;;
21786;SDS011;11055;50.870;4.316;2022-11-20T08:11:21;78.13;;;30.40;;
21786;SDS011;11055;50.870;4.316;2022-11-20T08:14:05;73.43;;;29.95;;
21786;SDS011;11055;50.870;4.316;2022-11-20T08:16:37;74.68;;;30.45;;
21786;SDS011;11055;50.870;4.316;2022-11-20T08:19:06;72.45;;;31.25;;
21786;SDS011;11055;50.870;4.316;2022-11-20T08:21:31;76.75;;;31.08;;
21786;SDS011;11055;50.870;4.316;2022-11-20T08:23:58;65.63;;;29.85;;
21786;SDS011;11055;50.870;4.316;2022-11-20T08:26:24;73.22;;;30.95;;
21786;SDS011;11055;50.870;4.316;2022-11-20T08:28:52;68.38;;;30.50;;
21786;SDS011;11055;50.870;4.316;2022-11-20T08:31:22;70.22;;;30.08;;
21786;SDS011;11055;50.870;4.316;2022-11-20T08:33:49;63.22;;;29.90;;
21786;SDS011;11055;50.870;4.316;2022-11-20T08:36:15;68.32;;;29.80;;
21786;SDS011;11055;50.870;4.316;2022-11-20T08:38:42;59.10;;;29.48;;
21786;SDS011;11055;50.870;4.316;2022-11-20T08:41:11;66.53;;;29.35;;
21786;SDS011;11055;50.870;4.316;2022-11-20T08:43:50;67.13;;;30.80;;
21786;SDS011;11055;50.870;4.316;2022-11-20T08:46:17;69.32;;;30.05;;
21786;SDS011;11055;50.870;4.316;2022-11-20T08:48:43;74.47;;;30.95;;
21786;SDS011;11055;50.870;4.316;2022-11-20T08:51:09;70.43;;;29.75;;
21786;SDS011;11055;50.870;4.316;2022-11-20T08:53:35;65.55;;;29.48;;
21786;SDS011;11055;50.870;4.316;2022-11-20T08:56:01;67.20;;;30.00;;
21786;SDS011;11055;50.870;4.316;2022-11-20T08:58:27;71.90;;;29.00;;
21786;SDS011;11055;50.870;4.316;2022-11-20T09:00:53;77.05;;;32.65;;
21786;SDS011;11055;50.870;4.316;2022-11-20T09:03:18;67.57;;;30.50;;
21786;SDS011;11055;50.870;4.316;2022-11-20T09:05:44;67.78;;;29.45;;
21786;SDS011;11055;50.870;4.316;2022-11-20T09:08:10;64.18;;;28.67;;
21786;SDS011;11055;50.870;4.316;2022-11-20T09:10:36;62.65;;;28.00;;
21786;SDS011;11055;50.870;4.316;2022-11-20T09:13:04;65.88;;;30.25;;
21786;SDS011;11055;50.870;4.316;2022-11-20T09:15:30;62.40;;;29.98;;
21786;SDS011;11055;50.870;4.316;2022-11-20T09:17:57;59.22;;;28.15;;
21786;SDS011;11055;50.870;4.316;2022-11-20T09:20:24;58.05;;;28.02;;
21786;SDS011;11055;50.870;4.316;2022-11-20T09:22:50;58.92;;;27.58;;
21786;SDS011;11055;50.870;4.316;2022-11-20T09:25:16;52.08;;;26.27;;
21786;SDS011;11055;50.870;4.316;2022-11-20T09:27:42;54.00;;;27.17;;
21786;SDS011;11055;50.870;4.316;2022-11-20T09:30:10;51.88;;;25.80;;
21786;SDS011;11055;50.870;4.316;2022-11-20T09:32:38;53.53;;;26.55;;
21786;SDS011;11055;50.870;4.316;2022-11-20T09:35:04;51.95;;;26.40;;
21786;SDS011;11055;50.870;4.316;2022-11-20T09:37:30;50.80;;;25.85;;
21786;SDS011;11055;50.870;4.316;2022-11-20T09:39:55;54.47;;;25.60;;
21786;SDS011;11055;50.870;4.316;2022-11-20T09:42:41;49.72;;;25.65;;
21786;SDS011;11055;50.870;4.316;2022-11-20T09:56:12;39.28;;;23.40;;
21786;SDS011;11055;50.870;4.316;2022-11-20T10:01:20;46.03;;;22.52;;
21786;SDS011;11055;50.870;4.316;2022-11-20T10:04:04;46.70;;;22.52;;
21786;SDS011;11055;50.870;4.316;2022-11-20T10:06:44;41.23;;;22.37;;
21786;SDS011;11055;50.870;4.316;2022-11-20T10:09:21;33.95;;;19.52;;
21786;SDS011;11055;50.870;4.316;2022-11-20T10:12:00;38.58;;;21.63;;
21786;SDS011;11055;50.870;4.316;2022-11-20T10:17:16;31.52;;;19.17;;
21786;SDS011;11055;50.870;4.316;2022-11-20T10:26:07;30.58;;;17.20;;
21786;SDS011;11055;50.870;4.316;2022-11-20T10:33:57;25.13;;;14.27;;
21786;SDS011;11055;50.870;4.316;2022-11-20T10:36:39;25.83;;;13.52;;
21786;SDS011;11055;50.870;4.316;2022-11-20T10:42:04;22.30;;;12.68;;
21786;SDS011;11055;50.870;4.316;2022-11-20T10:44:36;18.52;;;8.70;;
21786;SDS011;11055;50.870;4.316;2022-11-20T10:47:39;16.10;;;8.20;;
21786;SDS011;11055;50.870;4.316;2022-11-20T10:50:05;18.00;;;7.75;;
21786;SDS011;11055;50.870;4.316;2022-11-20T10:58:14;13.18;;;6.88;;
21786;SDS011;11055;50.870;4.316;2022-11-20T11:00:51;12.88;;;7.43;;
21786;SDS011;11055;50.870;4.316;2022-11-20T11:08:35;12.63;;;6.60;;
21786;SDS011;11055;50.870;4.316;2022-11-20T11:11:26;10.75;;;6.32;;
21786;SDS011;11055;50.870;4.316;2022-11-20T11:14:03;16.95;;;6.65;;
21786;SDS011;11055;50.870;4.316;2022-11-20T11:16:30;11.60;;;6.47;;
21786;SDS011;11055;50.870;4.316;2022-11-20T11:19:12;24.20;;;7.22;;
21786;SDS011;11055;50.870;4.316;2022-11-20T11:21:38;13.35;;;6.90;;
21786;SDS011;11055;50.870;4.316;2022-11-20T11:24:23;22.27;;;7.15;;
21786;SDS011;11055;50.870;4.316;2022-11-20T11:27:04;12.75;;;6.88;;
21786;SDS011;11055;50.870;4.316;2022-11-20T11:29:37;15.30;;;5.57;;
21786;SDS011;11055;50.870;4.316;2022-11-20T11:32:21;17.48;;;7.03;;
21786;SDS011;11055;50.870;4.316;2022-11-20T11:35:03;15.82;;;6.28;;
21786;SDS011;11055;50.870;4.316;2022-11-20T11:37:34;9.90;;;5.68;;
21786;SDS011;11055;50.870;4.316;2022-11-20T11:40:05;10.25;;;5.80;;
21786;SDS011;11055;50.870;4.316;2022-11-20T11:42:39;11.95;;;5.63;;
21786;SDS011;11055;50.870;4.316;2022-11-20T11:45:15;9.10;;;5.28;;
21786;SDS011;11055;50.870;4.316;2022-11-20T11:55:36;9.90;;;5.07;;
21786;SDS011;11055;50.870;4.316;2022-11-20T12:00:45;8.82;;;5.07;;
21786;SDS011;11055;50.870;4.316;2022-11-20T12:03:35;11.55;;;4.18;;
21786;SDS011;11055;50.870;4.316;2022-11-20T12:06:15;8.25;;;5.07;;
21786;SDS011;11055;50.870;4.316;2022-11-20T12:11:47;10.15;;;5.10;;
21786;SDS011;11055;50.870;4.316;2022-11-20T12:14:20;9.93;;;4.63;;
21786;SDS011;11055;50.870;4.316;2022-11-20T12:16:56;9.50;;;4.25;;
21786;SDS011;11055;50.870;4.316;2022-11-20T12:19:29;11.18;;;5.15;;
21786;SDS011;11055;50.870;4.316;2022-11-20T12:22:05;9.93;;;4.30;;
21786;SDS011;11055;50.870;4.316;2022-11-20T12:25:04;9.85;;;4.65;;
21786;SDS011;11055;50.870;4.316;2022-11-20T12:27:58;9.52;;;4.10;;
21786;SDS011;11055;50.870;4.316;2022-11-20T12:30:30;14.20;;;5.47;;
21786;SDS011;11055;50.870;4.316;2022-11-20T12:33:04;8.50;;;3.90;;
21786;SDS011;11055;50.870;4.316;2022-11-20T12:39:07;10.60;;;4.57;;
21786;SDS011;11055;50.870;4.316;2022-11-20T12:56:16;11.63;;;4.60;;
21786;SDS011;11055;50.870;4.316;2022-11-20T13:04:29;8.07;;;4.40;;
21786;SDS011;11055;50.870;4.316;2022-11-20T13:07:18;8.00;;;3.92;;
21786;SDS011;11055;50.870;4.316;2022-11-20T13:09:47;7.20;;;3.88;;
21786;SDS011;11055;50.870;4.316;2022-11-20T13:12:25;6.03;;;3.72;;
21786;SDS011;11055;50.870;4.316;2022-11-20T13:18:03;8.60;;;4.07;;
21786;SDS011;11055;50.870;4.316;2022-11-20T13:20:33;9.07;;;4.00;;
21786;SDS011;11055;50.870;4.316;2022-11-20T13:23:01;11.65;;;4.30;;
21786;SDS011;11055;50.870;4.316;2022-11-20T13:27:54;5.72;;;3.80;;
21786;SDS011;11055;50.870;4.316;2022-11-20T13:30:25;9.43;;;4.75;;
21786;SDS011;11055;50.870;4.316;2022-11-20T13:35:33;4.30;;;3.78;;
21786;SDS011;11055;50.870;4.316;2022-11-20T13:38:06;4.47;;;3.65;;
21786;SDS011;11055;50.870;4.316;2022-11-20T13:40:33;6.18;;;3.88;;
21786;SDS011;11055;50.870;4.316;2022-11-20T13:43:16;6.78;;;3.60;;
21786;SDS011;11055;50.870;4.316;2022-11-20T13:45:53;4.85;;;3.50;;
21786;SDS011;11055;50.870;4.316;2022-11-20T13:48:21;7.20;;;4.00;;
21786;SDS011;11055;50.870;4.316;2022-11-20T13:56:05;7.88;;;4.68;;
21786;SDS011;11055;50.870;4.316;2022-11-20T14:01:24;4.00;;;3.60;;
21786;SDS011;11055;50.870;4.316;2022-11-20T14:03:54;7.07;;;3.72;;
21786;SDS011;11055;50.870;4.316;2022-11-20T14:06:34;4.25;;;3.30;;
21786;SDS011;11055;50.870;4.316;2022-11-20T14:09:09;4.22;;;3.72;;
21786;SDS011;11055;50.870;4.316;2022-11-20T14:11:49;9.00;;;4.80;;
21786;SDS011;11055;50.870;4.316;2022-11-20T14:14:16;5.38;;;4.68;;
21786;SDS011;11055;50.870;4.316;2022-11-20T14:16:44;4.53;;;3.63;;
21786;SDS011;11055;50.870;4.316;2022-11-20T14:21:44;5.30;;;3.30;;
21786;SDS011;11055;50.870;4.316;2022-11-20T14:24:11;5.13;;;3.40;;
21786;SDS011;11055;50.870;4.316;2022-11-20T14:26:41;6.35;;;4.00;;
21786;SDS011;11055;50.870;4.316;2022-11-20T14:31:45;6.80;;;3.38;;
21786;SDS011;11055;50.870;4.316;2022-11-20T14:34:14;5.05;;;3.20;;
21786;SDS011;11055;50.870;4.316;2022-11-20T14:36:43;6.17;;;4.30;;
21786;SDS011;11055;50.870;4.316;2022-11-20T14:39:10;4.57;;;3.65;;
21786;SDS011;11055;50.870;4.316;2022-11-20T14:41:50;4.72;;;3.45;;
21786;SDS011;11055;50.870;4.316;2022-11-20T14:44:17;9.27;;;5.78;;
21786;SDS011;11055;50.870;4.316;2022-11-20T14:46:45;6.55;;;4.80;;
21786;SDS011;11055;50.870;4.316;2022-11-20T14:49:11;6.53;;;5.20;;
21786;SDS011;11055;50.870;4.316;2022-11-20T14:51:40;5.65;;;4.68;;
21786;SDS011;11055;50.870;4.316;2022-11-20T14:54:20;6.05;;;4.40;;
21786;SDS011;11055;50.870;4.316;2022-11-20T14:56:58;6.97;;;4.60;;
21786;SDS011;11055;50.870;4.316;2022-11-20T14:59:29;4.30;;;3.80;;
21786;SDS011;11055;50.870;4.316;2022-11-20T15:01:58;6.10;;;3.88;;
21786;SDS011;11055;50.870;4.316;2022-11-20T15:04:29;4.18;;;3.78;;
21786;SDS011;11055;50.870;4.316;2022-11-20T15:06:55;6.28;;;4.07;;
21786;SDS011;11055;50.870;4.316;2022-11-20T15:09:22;6.50;;;4.15;;
21786;SDS011;11055;50.870;4.316;2022-11-20T15:11:52;5.43;;;4.18;;
21786;SDS011;11055;50.870;4.316;2022-11-20T15:14:24;4.80;;;4.30;;
21786;SDS011;11055;50.870;4.316;2022-11-20T15:16:51;6.03;;;3.80;;
21786;SDS011;11055;50.870;4.316;2022-11-20T15:19:26;8.70;;;6.20;;
21786;SDS011;11055;50.870;4.316;2022-11-20T15:21:52;4.88;;;4.38;;
21786;SDS011;11055;50.870;4.316;2022-11-20T15:24:18;6.65;;;4.75;;
21786;SDS011;11055;50.870;4.316;2022-11-20T15:26:44;10.00;;;7.22;;
21786;SDS011;11055;50.870;4.316;2022-11-20T15:29:14;6.15;;;4.35;;
21786;SDS011;11055;50.870;4.316;2022-11-20T15:31:44;8.70;;;4.47;;
21786;SDS011;11055;50.870;4.316;2022-11-20T15:34:10;7.13;;;4.40;;
21786;SDS011;11055;50.870;4.316;2022-11-20T15:36:38;10.23;;;4.43;;
21786;SDS011;11055;50.870;4.316;2022-11-20T15:39:04;6.88;;;3.70;;
21786;SDS011;11055;50.870;4.316;2022-11-20T15:41:32;8.45;;;4.10;;
21786;SDS011;11055;50.870;4.316;2022-11-20T15:43:58;9.32;;;4.35;;
21786;SDS011;11055;50.870;4.316;2022-11-20T15:46:28;9.00;;;5.40;;
21786;SDS011;11055;50.870;4.316;2022-11-20T15:48:58;7.05;;;4.03;;
21786;SDS011;11055;50.870;4.316;2022-11-20T15:51:27;8.07;;;4.20;;
21786;SDS011;11055;50.870;4.316;2022-11-20T15:53:58;7.50;;;4.05;;
21786;SDS011;11055;50.870;4.316;2022-11-20T15:56:24;10.50;;;3.90;;
21786;SDS011;11055;50.870;4.316;2022-11-20T15:58:50;7.03;;;3.85;;
21786;SDS011;11055;50.870;4.316;2022-11-20T16:01:19;10.98;;;6.47;;
21786;SDS011;11055;50.870;4.316;2022-11-20T16:03:47;14.23;;;6.28;;
21786;SDS011;11055;50.870;4.316;2022-11-20T16:06:13;11.77;;;5.00;;
21786;SDS011;11055;50.870;4.316;2022-11-20T16:08:41;10.88;;;5.05;;
21786;SDS011;11055;50.870;4.316;2022-11-20T16:11:07;11.38;;;3.72;;
21786;SDS011;11055;50.870;4.316;2022-11-20T16:13:35;10.15;;;3.80;;
21786;SDS011;11055;50.870;4.316;2022-11-20T16:16:23;14.25;;;5.38;;
21786;SDS011;11055;50.870;4.316;2022-11-20T16:18:53;17.98;;;4.18;;
21786;SDS011;11055;50.870;4.316;2022-11-20T16:21:19;11.20;;;3.92;;
21786;SDS011;11055;50.870;4.316;2022-11-20T16:23:45;13.20;;;3.58;;
21786;SDS011;11055;50.870;4.316;2022-11-20T16:26:12;16.60;;;4.25;;
21786;SDS011;11055;50.870;4.316;2022-11-20T16:28:38;11.15;;;3.80;;